createdAt,value
2022-08-01T00:00:56.331Z,13.30
2022-08-01T00:03:23.661Z,14.57
2022-08-01T00:05:50.924Z,18.13
2022-08-01T00:08:18.186Z,14.25
2022-08-01T00:10:45.398Z,21.45
2022-08-01T00:13:12.713Z,16.45
2022-08-01T00:15:40.041Z,16.83
2022-08-01T00:18:07.509Z,18.73
2022-08-01T00:20:34.887Z,58.53
2022-08-01T00:23:04.570Z,20.20
2022-08-01T00:25:33.717Z,16.33
2022-08-01T00:28:04.288Z,14.90
2022-08-01T00:30:32.270Z,17.77
2022-08-01T00:32:59.810Z,18.65
2022-08-01T00:35:27.354Z,17.35
2022-08-01T00:37:54.783Z,18.98
2022-08-01T00:40:22.704Z,15.00
2022-08-01T00:42:50.016Z,21.48
2022-08-01T00:45:17.381Z,15.57
2022-08-01T00:47:44.807Z,14.60
2022-08-01T00:50:12.823Z,52.10
2022-08-01T00:52:42.108Z,17.10
2022-08-01T00:55:15.047Z,18.60
2022-08-01T00:58:02.491Z,22.70
2022-08-01T01:00:30.590Z,22.45
2022-08-01T01:03:01.055Z,22.15
2022-08-01T01:05:28.520Z,19.00
2022-08-01T01:08:09.689Z,20.88
2022-08-01T01:10:59.182Z,18.30
2022-08-01T01:13:53.779Z,20.55
2022-08-01T01:16:23.536Z,25.75
2022-08-01T01:19:00.065Z,30.23
2022-08-01T01:21:43.261Z,27.27
2022-08-01T01:24:32.219Z,24.92
2022-08-01T01:27:20.573Z,27.95
2022-08-01T01:29:59.873Z,21.48
2022-08-01T01:32:40.788Z,21.58
2022-08-01T01:35:15.126Z,22.85
2022-08-01T01:37:45.478Z,21.38
2022-08-01T01:40:14.967Z,22.48
2022-08-01T01:42:44.216Z,24.08
2022-08-01T01:45:13.059Z,21.58
2022-08-01T01:47:41.024Z,19.80
2022-08-01T01:50:12.428Z,26.23
2022-08-01T01:52:41.771Z,24.90
2022-08-01T01:55:11.408Z,23.67
2022-08-01T01:57:44.364Z,25.47
2022-08-01T02:00:15.165Z,21.95
2022-08-01T02:02:44.253Z,22.77
2022-08-01T02:05:13.605Z,19.58
2022-08-01T02:07:42.394Z,17.85
2022-08-01T02:10:13.198Z,18.65
2022-08-01T02:12:46.609Z,17.08
2022-08-01T02:15:16.478Z,18.63
2022-08-01T02:17:48.277Z,20.02
2022-08-01T02:20:17.274Z,17.90
2022-08-01T02:22:54.428Z,18.50
2022-08-01T02:25:32.790Z,23.20
2022-08-01T02:28:04.920Z,20.55
2022-08-01T02:30:36.563Z,23.20
2022-08-01T02:33:28.893Z,22.20
2022-08-01T02:36:31.475Z,23.02
2022-08-01T02:38:49.053Z,22.95
2022-08-01T02:41:23.131Z,27.27
2022-08-01T02:43:59.378Z,19.65
2022-08-01T02:46:53.129Z,23.50
2022-08-01T02:49:22.198Z,28.10
2022-08-01T02:51:51.307Z,24.90
2022-08-01T02:54:22.694Z,22.58
2022-08-01T02:56:52.934Z,28.38
2022-08-01T03:01:56.598Z,22.77
2022-08-01T03:04:25.710Z,32.15
2022-08-01T03:06:59.443Z,25.85
2022-08-01T03:09:30.683Z,25.98
2022-08-01T03:12:04.261Z,26.73
2022-08-01T03:14:35.774Z,23.23
2022-08-01T03:17:05.290Z,20.95
2022-08-01T03:19:34.237Z,21.17
2022-08-01T03:22:04.859Z,23.17
2022-08-01T03:24:34.174Z,20.92
2022-08-01T03:27:02.088Z,25.42
2022-08-01T03:29:31.026Z,18.05
2022-08-01T03:32:01.197Z,22.15
2022-08-01T03:34:29.814Z,20.88
2022-08-01T03:37:27.277Z,18.73
2022-08-01T03:40:27.452Z,18.70
2022-08-01T03:43:03.434Z,19.48
2022-08-01T03:45:41.334Z,17.75
2022-08-01T03:48:16.487Z,20.80
2022-08-01T03:50:49.110Z,26.90
2022-08-01T03:53:22.517Z,20.65
2022-08-01T03:55:50.698Z,20.98
2022-08-01T03:58:18.758Z,17.23
2022-08-01T04:00:46.933Z,19.40
2022-08-01T04:03:14.962Z,17.98
2022-08-01T04:05:43.966Z,15.57
2022-08-01T04:08:11.724Z,22.40
2022-08-01T04:10:39.872Z,16.55
2022-08-01T04:13:07.175Z,15.68
2022-08-01T04:15:35.723Z,12.45
2022-08-01T04:18:03.093Z,14.75
2022-08-01T04:20:30.903Z,11.23
2022-08-01T04:22:58.294Z,10.48
2022-08-01T04:25:37.993Z,6.28
2022-08-01T04:28:08.565Z,6.90
2022-08-01T04:33:07.852Z,6.60
2022-08-01T04:36:02.888Z,7.18
2022-08-01T04:38:29.450Z,6.40
2022-08-01T04:40:58.946Z,7.65
2022-08-01T04:43:36.660Z,4.10
2022-08-01T04:46:05.190Z,3.22
2022-08-01T04:48:35.599Z,4.63
2022-08-01T04:51:03.013Z,3.47
2022-08-01T04:53:33.386Z,2.70
2022-08-01T04:56:01.668Z,3.35
2022-08-01T04:58:28.935Z,1.60
2022-08-01T05:00:56.304Z,3.30
2022-08-01T05:03:23.992Z,2.13
2022-08-01T05:05:51.449Z,1.83
2022-08-01T05:08:18.854Z,2.95
2022-08-01T05:10:46.147Z,2.90
2022-08-01T05:13:13.660Z,1.08
2022-08-01T05:15:41.236Z,3.17
2022-08-01T05:18:09.703Z,1.35
2022-08-01T05:20:38.261Z,2.53
2022-08-01T05:23:06.476Z,1.10
2022-08-01T05:25:56.972Z,2.97
2022-08-01T05:28:25.659Z,1.40
2022-08-01T05:30:56.089Z,1.45
2022-08-01T05:33:23.744Z,1.98
2022-08-01T05:35:51.065Z,2.08
2022-08-01T05:38:18.326Z,3.63
2022-08-01T05:40:45.767Z,1.30
2022-08-01T05:43:13.096Z,2.63
2022-08-01T05:45:42.478Z,1.40
2022-08-01T05:48:09.955Z,2.10
2022-08-01T05:50:37.405Z,1.60
2022-08-01T05:53:04.834Z,1.88
2022-08-01T05:55:32.135Z,2.67
2022-08-01T05:57:59.406Z,2.33
2022-08-01T06:00:26.877Z,1.58
2022-08-01T06:02:54.214Z,1.20
2022-08-01T06:05:21.599Z,3.13
2022-08-01T06:07:49.083Z,4.20
2022-08-01T06:10:16.447Z,3.75
2022-08-01T06:12:43.864Z,1.60
2022-08-01T06:15:11.638Z,2.45
2022-08-01T06:17:40.207Z,5.63
2022-08-01T06:20:08.610Z,3.53
2022-08-01T06:22:35.992Z,2.33
2022-08-01T06:25:04.348Z,1.10
2022-08-01T06:27:31.766Z,2.38
2022-08-01T06:29:59.986Z,2.13
2022-08-01T06:32:27.956Z,1.25
2022-08-01T06:34:56.417Z,3.95
2022-08-01T06:37:24.411Z,1.95
2022-08-01T06:39:51.642Z,2.15
2022-08-01T06:42:19.147Z,1.20
2022-08-01T06:44:46.933Z,3.85
2022-08-01T06:47:14.241Z,3.17
2022-08-01T06:49:41.683Z,1.13
2022-08-01T06:52:09.578Z,1.13
2022-08-01T06:54:37.066Z,3.90
2022-08-01T06:57:07.506Z,2.30
2022-08-01T06:59:35.117Z,2.75
2022-08-01T07:02:03.259Z,3.75
2022-08-01T07:04:31.529Z,2.25
2022-08-01T07:06:59.052Z,7.32
2022-08-01T07:09:27.012Z,2.65
2022-08-01T07:11:55.058Z,2.83
2022-08-01T07:14:24.061Z,4.18
2022-08-01T07:16:52.117Z,1.75
2022-08-01T07:19:19.665Z,3.38
2022-08-01T07:21:49.371Z,3.67
2022-08-01T07:24:19.458Z,6.07
2022-08-01T07:26:53.281Z,4.57
2022-08-01T07:29:24.233Z,1.63
2022-08-01T07:34:22.276Z,3.78
2022-08-01T07:36:50.007Z,3.40
2022-08-01T07:39:17.405Z,3.35
2022-08-01T07:41:54.653Z,2.60
2022-08-01T07:44:32.260Z,2.70
2022-08-01T07:46:59.849Z,2.22
2022-08-01T07:49:27.374Z,3.97
2022-08-01T07:52:03.234Z,4.72
2022-08-01T07:54:35.198Z,1.67
2022-08-01T07:57:04.060Z,7.38
2022-08-01T07:59:31.907Z,2.38
2022-08-01T08:01:59.507Z,6.05
2022-08-01T08:04:28.336Z,6.85
2022-08-01T08:06:55.780Z,3.60
2022-08-01T08:09:24.022Z,3.15
2022-08-01T08:11:51.590Z,3.67
2022-08-01T08:14:19.774Z,7.90
2022-08-01T08:16:47.279Z,4.88
2022-08-01T08:19:14.872Z,2.78
2022-08-01T08:21:42.341Z,3.60
2022-08-01T08:24:20.485Z,3.47
2022-08-01T08:26:59.445Z,3.65
2022-08-01T08:29:30.634Z,3.97
2022-08-01T08:31:59.467Z,3.90
2022-08-01T08:34:28.682Z,5.70
2022-08-01T08:36:59.018Z,5.82
2022-08-01T08:39:27.347Z,7.68
2022-08-01T08:41:54.812Z,6.03
2022-08-01T08:44:22.376Z,5.13
2022-08-01T08:46:53.424Z,6.70
2022-08-01T08:49:25.104Z,4.55
2022-08-01T08:51:54.294Z,3.47
2022-08-01T08:54:30.833Z,5.35
2022-08-01T08:57:01.601Z,5.68
2022-08-01T08:59:29.672Z,8.23
2022-08-01T09:01:58.867Z,6.18
2022-08-01T09:04:27.653Z,7.95
2022-08-01T09:06:55.880Z,4.30
2022-08-01T09:09:24.477Z,4.75
2022-08-01T09:11:56.647Z,6.30
2022-08-01T09:14:31.033Z,4.22
2022-08-01T09:17:09.671Z,5.53
2022-08-01T09:19:57.501Z,6.57
2022-08-01T09:22:26.512Z,4.15
2022-08-01T09:25:08.603Z,4.70
2022-08-01T09:27:43.859Z,4.18
2022-08-01T09:30:23.737Z,3.67
2022-08-01T09:35:43.334Z,3.72
2022-08-01T09:38:20.220Z,7.10
2022-08-01T09:41:01.981Z,7.07
2022-08-01T09:43:32.295Z,8.48
2022-08-01T09:46:05.802Z,5.90
2022-08-01T09:48:33.775Z,5.80
2022-08-01T09:51:07.009Z,6.97
2022-08-01T09:53:52.445Z,4.05
2022-08-01T09:56:22.857Z,6.00
2022-08-01T10:01:27.526Z,6.60
2022-08-01T10:04:15.309Z,7.95
2022-08-01T10:06:46.279Z,8.63
2022-08-01T10:09:15.375Z,4.15
2022-08-01T10:11:44.958Z,5.13
2022-08-01T10:14:17.822Z,5.38
2022-08-01T10:17:03.169Z,5.93
2022-08-01T10:19:33.830Z,5.18
2022-08-01T10:22:02.820Z,10.10
2022-08-01T10:24:33.368Z,4.28
2022-08-01T10:27:12.813Z,5.93
2022-08-01T10:30:14.193Z,5.93
2022-08-01T10:32:50.923Z,7.80
2022-08-01T10:35:47.241Z,7.28
2022-08-01T10:38:10.906Z,7.88
2022-08-01T10:40:45.360Z,4.47
2022-08-01T10:43:21.898Z,7.03
2022-08-01T10:45:51.987Z,4.60
2022-08-01T10:48:47.263Z,8.13
2022-08-01T10:51:17.421Z,5.82
2022-08-01T10:53:55.973Z,4.85
2022-08-01T10:56:26.489Z,5.05
2022-08-01T10:59:06.080Z,5.90
2022-08-01T11:01:37.387Z,6.40
2022-08-01T11:04:17.670Z,9.18
2022-08-01T11:07:22.007Z,7.60
2022-08-01T11:10:23.683Z,6.32
2022-08-01T11:12:52.029Z,6.57
2022-08-01T11:15:29.069Z,6.90
2022-08-01T11:18:00.759Z,9.10
2022-08-01T11:20:32.616Z,7.88
2022-08-01T11:23:05.098Z,6.97
2022-08-01T11:26:05.761Z,7.28
2022-08-01T11:28:30.231Z,6.60
2022-08-01T11:31:14.123Z,8.00
2022-08-01T11:33:46.938Z,4.80
2022-08-01T11:36:15.521Z,6.60
2022-08-01T11:38:47.084Z,5.38
2022-08-01T11:41:37.456Z,9.18
2022-08-01T11:44:13.018Z,6.88
2022-08-01T11:47:08.905Z,6.10
2022-08-01T11:49:49.289Z,9.68
2022-08-01T11:52:31.236Z,5.78
2022-08-01T11:55:11.481Z,3.65
2022-08-01T11:57:40.008Z,5.35
2022-08-01T12:00:16.878Z,8.15
2022-08-01T12:02:48.119Z,4.63
2022-08-01T12:05:24.647Z,7.13
2022-08-01T12:07:54.957Z,5.75
2022-08-01T12:10:26.501Z,4.97
2022-08-01T12:13:02.339Z,5.85
2022-08-01T12:15:36.495Z,4.05
2022-08-01T12:18:07.020Z,5.43
2022-08-01T12:20:56.060Z,10.43
2022-08-01T12:23:24.383Z,4.40
2022-08-01T12:25:55.005Z,5.43
2022-08-01T12:28:23.924Z,7.05
2022-08-01T12:30:51.888Z,5.30
2022-08-01T12:33:21.532Z,4.28
2022-08-01T12:35:49.389Z,5.80
2022-08-01T12:38:27.993Z,6.68
2022-08-01T12:40:56.772Z,4.28
2022-08-01T12:43:29.493Z,3.90
2022-08-01T12:46:03.275Z,6.85
2022-08-01T12:48:32.765Z,4.95
2022-08-01T12:51:03.607Z,4.82
2022-08-01T12:53:40.681Z,4.75
2022-08-01T12:56:14.002Z,6.80
2022-08-01T12:58:41.836Z,6.43
2022-08-01T13:01:11.560Z,4.60
2022-08-01T13:03:40.125Z,5.72
2022-08-01T13:06:17.195Z,4.82
2022-08-01T13:08:46.676Z,4.38
2022-08-01T13:11:17.714Z,5.10
2022-08-01T13:13:49.386Z,6.75
2022-08-01T13:16:30.763Z,6.07
2022-08-01T13:19:08.657Z,5.90
2022-08-01T13:21:53.010Z,4.47
2022-08-01T13:24:30.506Z,7.90
2022-08-01T13:27:04.939Z,6.45
2022-08-01T13:29:42.702Z,3.65
2022-08-01T13:32:29.236Z,5.10
2022-08-01T13:35:10.366Z,8.40
2022-08-01T13:37:43.245Z,3.47
2022-08-01T13:40:12.315Z,7.10
2022-08-01T13:42:40.263Z,4.18
2022-08-01T13:45:14.416Z,3.60
2022-08-01T13:48:03.550Z,6.05
2022-08-01T13:50:33.514Z,4.53
2022-08-01T13:53:00.867Z,6.28
2022-08-01T13:55:34.080Z,5.75
2022-08-01T13:58:02.834Z,4.30
2022-08-01T14:00:30.303Z,5.25
2022-08-01T14:02:57.574Z,5.80
2022-08-01T14:05:24.890Z,5.90
2022-08-01T14:07:56.620Z,5.22
2022-08-01T14:10:25.405Z,24.65
2022-08-01T14:12:52.740Z,80.68
2022-08-01T14:15:38.955Z,53.17
2022-08-01T14:18:09.782Z,8.48
2022-08-01T14:20:39.638Z,23.77
2022-08-01T14:23:08.749Z,11.23
2022-08-01T14:26:03.388Z,6.75
2022-08-01T14:28:29.667Z,6.75
2022-08-01T14:30:58.472Z,4.72
2022-08-01T14:33:27.299Z,8.02
2022-08-01T14:36:06.706Z,7.13
2022-08-01T14:38:42.059Z,11.00
2022-08-01T14:41:14.959Z,4.03
2022-08-01T14:43:42.500Z,5.35
2022-08-01T14:46:11.100Z,3.97
2022-08-01T14:48:38.774Z,5.13
2022-08-01T14:51:08.301Z,7.32
2022-08-01T14:53:37.435Z,5.75
2022-08-01T14:56:08.133Z,4.00
2022-08-01T14:58:35.523Z,6.32
2022-08-01T15:01:02.984Z,6.53
2022-08-01T15:03:30.418Z,8.38
2022-08-01T15:05:57.657Z,4.45
2022-08-01T15:08:25.052Z,5.18
2022-08-01T15:10:52.960Z,5.97
2022-08-01T15:13:20.984Z,5.68
2022-08-01T15:15:48.441Z,4.75
2022-08-01T15:18:15.765Z,5.65
2022-08-01T15:20:43.180Z,5.55
2022-08-01T15:23:10.590Z,5.30
2022-08-01T15:25:41.139Z,8.05
2022-08-01T15:28:11.026Z,3.85
2022-08-01T15:30:38.995Z,8.80
2022-08-01T15:33:06.532Z,5.75
2022-08-01T15:35:34.213Z,6.22
2022-08-01T15:38:01.728Z,4.55
2022-08-01T15:40:29.527Z,5.07
2022-08-01T15:42:57.005Z,4.60
2022-08-01T15:48:12.098Z,3.92
2022-08-01T15:50:39.661Z,4.82
2022-08-01T15:53:07.782Z,5.68
2022-08-01T15:55:39.831Z,3.95
2022-08-01T15:58:08.217Z,4.65
2022-08-01T16:00:40.010Z,7.90
2022-08-01T16:03:10.305Z,4.93
2022-08-01T16:05:43.505Z,7.60
2022-08-01T16:08:13.700Z,4.03
2022-08-01T16:10:41.391Z,8.38
2022-08-01T16:13:09.496Z,4.70
2022-08-01T16:15:39.187Z,9.20
2022-08-01T16:18:08.526Z,4.07
2022-08-01T16:20:40.266Z,4.70
2022-08-01T16:23:12.080Z,5.30
2022-08-01T16:25:39.476Z,5.35
2022-08-01T16:28:06.860Z,3.88
2022-08-01T16:30:34.695Z,5.03
2022-08-01T16:33:08.241Z,12.20
2022-08-01T16:35:50.051Z,6.18
2022-08-01T16:38:19.391Z,4.22
2022-08-01T16:40:51.857Z,4.40
2022-08-01T16:43:20.385Z,4.65
2022-08-01T16:45:48.291Z,4.50
2022-08-01T16:48:18.401Z,4.50
2022-08-01T16:50:49.455Z,6.82
2022-08-01T16:53:22.114Z,4.90
2022-08-01T16:55:50.990Z,5.40
2022-08-01T16:58:27.683Z,4.82
2022-08-01T17:00:57.575Z,6.03
2022-08-01T17:03:51.208Z,6.35
2022-08-01T17:06:14.138Z,4.63
2022-08-01T17:08:47.050Z,6.35
2022-08-01T17:11:15.366Z,5.60
2022-08-01T17:13:43.224Z,5.38
2022-08-01T17:16:11.176Z,4.82
2022-08-01T17:18:38.667Z,6.78
2022-08-01T17:21:06.136Z,7.70
2022-08-01T17:23:35.130Z,5.18
2022-08-01T17:26:02.721Z,11.25
2022-08-01T17:28:30.170Z,9.20
2022-08-01T17:30:57.839Z,4.88
2022-08-01T17:33:44.554Z,6.50
2022-08-01T17:36:12.816Z,6.07
2022-08-01T17:38:40.137Z,6.45
2022-08-01T17:41:07.466Z,7.55
2022-08-01T17:43:35.273Z,5.13
2022-08-01T17:46:02.759Z,5.57
2022-08-01T17:48:30.209Z,5.63
2022-08-01T17:50:57.614Z,6.18
2022-08-01T17:53:24.940Z,6.10
2022-08-01T17:55:53.570Z,6.40
2022-08-01T17:58:36.740Z,8.20
2022-08-01T18:01:15.873Z,9.20
2022-08-01T18:03:43.840Z,6.57
2022-08-01T18:06:17.562Z,7.15
2022-08-01T18:08:47.757Z,6.80
2022-08-01T18:11:16.659Z,7.63
2022-08-01T18:13:45.157Z,7.75
2022-08-01T18:16:13.484Z,7.65
2022-08-01T18:18:43.876Z,9.48
2022-08-01T18:23:40.224Z,8.60
2022-08-01T18:26:11.630Z,7.05
2022-08-01T18:28:42.112Z,13.88
2022-08-01T18:31:17.422Z,7.55
2022-08-01T18:33:45.397Z,9.00
2022-08-01T18:36:27.219Z,8.00
2022-08-01T18:39:06.229Z,9.00
2022-08-01T18:41:37.374Z,8.18
2022-08-01T18:44:08.075Z,10.70
2022-08-01T18:46:40.424Z,8.82
2022-08-01T18:49:11.124Z,7.57
2022-08-01T18:51:44.379Z,7.57
2022-08-01T18:54:14.155Z,10.40
2022-08-01T18:56:43.297Z,9.38
2022-08-01T18:59:11.267Z,13.98
2022-08-01T19:01:39.897Z,6.85
2022-08-01T19:04:08.616Z,10.05
2022-08-01T19:06:36.336Z,8.90
2022-08-01T19:09:05.293Z,9.82
2022-08-01T19:11:34.715Z,8.65
2022-08-01T19:14:03.268Z,9.10
2022-08-01T19:16:30.984Z,7.85
2022-08-01T19:18:58.385Z,9.38
2022-08-01T19:21:25.999Z,8.80
2022-08-01T19:24:12.042Z,7.32
2022-08-01T19:26:45.602Z,7.82
2022-08-01T19:29:21.601Z,7.47
2022-08-01T19:31:50.393Z,8.10
2022-08-01T19:34:26.493Z,8.93
2022-08-01T19:36:58.579Z,7.13
2022-08-01T19:39:27.848Z,10.38
2022-08-01T19:41:57.690Z,7.85
2022-08-01T19:44:28.964Z,9.10
2022-08-01T19:46:56.662Z,6.75
2022-08-01T19:49:24.415Z,9.57
2022-08-01T19:52:01.397Z,9.40
2022-08-01T19:54:36.135Z,7.88
2022-08-01T19:57:06.882Z,9.57
2022-08-01T19:59:36.488Z,12.90
2022-08-01T20:02:05.147Z,9.93
2022-08-01T20:04:33.951Z,8.75
2022-08-01T20:07:03.213Z,8.77
2022-08-01T20:09:32.078Z,9.65
2022-08-01T20:11:59.545Z,9.45
2022-08-01T20:14:27.721Z,8.90
2022-08-01T20:16:56.159Z,9.55
2022-08-01T20:19:25.934Z,7.38
2022-08-01T20:22:06.267Z,8.73
2022-08-01T20:24:49.956Z,6.57
2022-08-01T20:27:18.849Z,7.80
2022-08-01T20:29:48.638Z,6.57
2022-08-01T20:32:16.705Z,6.63
2022-08-01T20:34:44.304Z,8.35
2022-08-01T20:37:12.817Z,7.97
2022-08-01T20:39:45.072Z,6.90
2022-08-01T20:42:14.558Z,8.43
2022-08-01T20:44:43.281Z,6.43
2022-08-01T20:47:11.226Z,10.05
2022-08-01T20:49:40.773Z,5.97
2022-08-01T20:52:11.101Z,8.88
2022-08-01T20:54:41.671Z,6.93
2022-08-01T20:57:29.400Z,7.50
2022-08-01T21:00:05.626Z,10.07
2022-08-01T21:03:18.696Z,7.00
2022-08-01T21:05:59.089Z,9.02
2022-08-01T21:08:50.144Z,7.55
2022-08-01T21:11:21.445Z,6.70
2022-08-01T21:13:49.311Z,7.50
2022-08-01T21:16:28.715Z,7.10
2022-08-01T21:25:06.478Z,7.97
2022-08-01T21:27:36.172Z,7.60
2022-08-01T21:30:08.504Z,10.02
2022-08-01T21:32:37.042Z,12.07
2022-08-01T21:35:15.601Z,9.95
2022-08-01T21:37:45.423Z,10.75
2022-08-01T21:40:23.925Z,9.43
2022-08-01T21:42:53.627Z,8.80
2022-08-01T21:45:27.371Z,10.13
2022-08-01T21:47:57.341Z,7.97
2022-08-01T21:50:25.341Z,9.15
2022-08-01T21:53:16.052Z,9.20
2022-08-01T21:55:54.840Z,8.85
2022-08-01T21:59:02.841Z,8.57
2022-08-01T22:01:53.241Z,11.05
2022-08-01T22:04:48.645Z,13.48
2022-08-01T22:07:19.309Z,9.90
2022-08-01T22:09:50.140Z,11.48
2022-08-01T22:12:20.066Z,10.48
2022-08-01T22:14:56.126Z,11.95
2022-08-01T22:17:24.831Z,10.98
2022-08-01T22:19:55.223Z,10.60
2022-08-01T22:25:12.005Z,11.65
2022-08-01T22:28:06.550Z,10.50
2022-08-01T22:30:34.924Z,13.15
2022-08-01T22:33:07.343Z,14.25
2022-08-01T22:35:45.757Z,10.77
2022-08-01T22:38:14.081Z,12.23
2022-08-01T22:40:54.218Z,10.95
2022-08-01T22:43:42.485Z,8.60
2022-08-01T22:46:22.498Z,9.35
2022-08-01T22:49:24.358Z,9.68
2022-08-01T22:52:18.198Z,7.35
2022-08-01T22:55:07.664Z,8.40
2022-08-01T22:57:53.789Z,9.23
2022-08-01T23:00:21.175Z,7.53
2022-08-01T23:02:55.283Z,6.95
2022-08-01T23:05:25.641Z,6.88
2022-08-01T23:07:59.252Z,11.30
2022-08-01T23:10:27.322Z,8.45
2022-08-01T23:12:56.067Z,10.00
2022-08-01T23:15:24.925Z,8.93
2022-08-01T23:17:53.837Z,9.63
2022-08-01T23:20:21.616Z,10.98
2022-08-01T23:22:51.217Z,8.57
2022-08-01T23:25:18.800Z,9.30
2022-08-01T23:27:54.395Z,8.25
2022-08-01T23:30:35.330Z,8.10
2022-08-01T23:33:03.458Z,8.07
2022-08-01T23:35:32.131Z,9.02
2022-08-01T23:38:03.361Z,9.45
2022-08-01T23:40:33.255Z,7.50
2022-08-01T23:43:02.720Z,9.38
2022-08-01T23:46:01.831Z,10.50
2022-08-01T23:48:18.780Z,12.50
2022-08-01T23:50:46.184Z,10.15
2022-08-01T23:53:13.606Z,11.25
2022-08-01T23:55:43.287Z,9.18
2022-08-01T23:58:11.930Z,9.52
